Time;durP1;ratioP1;P1;durP2;ratioP2;P2;SDS_P1;SDS_P2;PMS_P1;PMS_P2;Temp;Humidity;BMP_temperature;BMP_pressure;BME280_temperature;BME280_humidity;BME280_pressure;Samples;Min_cycle;Max_cycle;Signal;HPM_P1;HPM_P2
2022/04/29 00:02:14;;;;;;;9.23;8.93;;;22.60;54.10;;;;;;5053107;28;20447;-48
2022/04/29 00:04:42;;;;;;;9.10;8.80;;;22.60;54.10;;;;;;5052929;28;20453;-48
2022/04/29 00:07:10;;;;;;;9.00;8.70;;;22.60;54.10;;;;;;5035821;28;20449;-48
2022/04/29 00:09:38;;;;;;;9.30;9.10;;;22.60;54.10;;;;;;5032977;28;20446;-47
2022/04/29 00:12:07;;;;;;;9.70;9.40;;;22.60;54.10;;;;;;5032991;28;20458;-48
2022/04/29 00:14:36;;;;;;;9.00;8.70;;;22.50;54.10;;;;;;5032802;28;21005;-48
2022/04/29 00:17:04;;;;;;;9.60;9.30;;;22.50;54.00;;;;;;5048230;28;20453;-47
2022/04/29 00:19:32;;;;;;;9.53;9.23;;;22.50;54.10;;;;;;5052568;28;20455;-48
2022/04/29 00:21:59;;;;;;;8.80;8.60;;;22.50;54.20;;;;;;5052940;28;20826;-48
2022/04/29 00:24:25;;;;;;;9.10;8.83;;;22.50;54.20;;;;;;5052534;28;20930;-48
2022/04/29 00:26:53;;;;;;;9.10;8.90;;;22.50;54.20;;;;;;5037972;28;21102;-47
2022/04/29 00:29:20;;;;;;;9.50;9.30;;;22.50;54.20;;;;;;5050662;28;20535;-47
2022/04/29 00:31:48;;;;;;;9.80;9.50;;;22.40;54.20;;;;;;5052377;28;20817;-48
2022/04/29 00:34:15;;;;;;;9.20;8.90;;;22.40;54.10;;;;;;5052410;28;21009;-48
2022/04/29 00:36:42;;;;;;;9.50;9.10;;;22.40;54.20;;;;;;5039272;28;21017;-47
2022/04/29 00:39:08;;;;;;;8.20;8.00;;;22.40;54.30;;;;;;5032483;28;20450;-47
2022/04/29 00:41:35;;;;;;;10.53;10.13;;;22.40;54.20;;;;;;5032411;28;20826;-48
2022/04/29 00:44:04;;;;;;;9.10;8.70;;;22.40;54.20;;;;;;5032413;28;20441;-47
2022/04/29 00:46:34;;;;;;;9.30;8.90;;;22.40;54.20;;;;;;5042661;28;20476;-46
2022/04/29 00:49:02;;;;;;;8.80;8.60;;;22.30;54.80;;;;;;5052153;28;20459;-47
2022/04/29 00:51:29;;;;;;;9.37;9.07;;;22.30;54.30;;;;;;5052028;28;20817;-46
2022/04/29 00:53:57;;;;;;;10.50;10.20;;;22.30;54.30;;;;;;5052300;28;20456;-46
2022/04/29 00:56:29;;;;;;;9.47;9.17;;;22.30;54.40;;;;;;5041772;28;20839;-49
2022/04/29 00:59:02;;;;;;;9.50;9.20;;;22.30;54.40;;;;;;5032044;28;20452;-48
2022/04/29 01:01:32;;;;;;;9.23;9.00;;;22.30;54.40;;;;;;5032151;28;20453;-46
2022/04/29 01:04:01;;;;;;;9.10;8.90;;;22.20;54.30;;;;;;5032035;28;20480;-46
2022/04/29 01:06:29;;;;;;;9.30;9.00;;;22.20;54.40;;;;;;5041280;28;20479;-47
2022/04/29 01:08:55;;;;;;;9.80;9.50;;;22.20;54.40;;;;;;5051835;28;20455;-46
2022/04/29 01:11:25;;;;;;;9.40;9.20;;;22.20;54.40;;;;;;5051859;28;20981;-47
2022/04/29 01:13:53;;;;;;;8.93;8.73;;;22.20;54.50;;;;;;5052003;28;20448;-47
2022/04/29 01:16:21;;;;;;;9.20;9.00;;;22.20;54.50;;;;;;5049981;28;20472;-46
2022/04/29 01:18:51;;;;;;;9.43;9.13;;;22.10;54.50;;;;;;5051545;28;20966;-47
2022/04/29 01:21:18;;;;;;;9.80;9.40;;;22.10;55.00;;;;;;5051737;28;20938;-46
2022/04/29 01:23:46;;;;;;;8.83;8.60;;;22.10;54.50;;;;;;5051573;28;20456;-46
2022/04/29 01:26:16;;;;;;;9.57;9.37;;;22.10;54.50;;;;;;5043967;28;20812;-46
2022/04/29 01:28:45;;;;;;;9.60;9.40;;;22.10;54.60;;;;;;5031565;28;20452;-46
2022/04/29 01:31:13;;;;;;;9.40;9.10;;;22.10;54.60;;;;;;5032790;28;20453;-46
2022/04/29 01:33:42;;;;;;;9.13;8.83;;;22.10;54.70;;;;;;5031692;28;20814;-47
2022/04/29 01:36:09;;;;;;;9.47;9.17;;;22.00;54.60;;;;;;5037819;28;20496;-48
2022/04/29 01:38:36;;;;;;;9.77;9.47;;;22.10;54.70;;;;;;5051420;28;20448;-46
2022/04/29 01:41:05;;;;;;;9.47;9.17;;;22.00;54.70;;;;;;5051454;28;20805;-47
2022/04/29 01:43:32;;;;;;;9.67;9.40;;;22.00;54.80;;;;;;5051566;28;20448;-46
2022/04/29 01:45:59;;;;;;;9.73;9.43;;;22.00;54.70;;;;;;5046367;28;20477;-47
2022/04/29 01:48:26;;;;;;;9.23;9.03;;;22.00;54.70;;;;;;5031317;28;20441;-47
2022/04/29 01:50:52;;;;;;;9.47;9.17;;;22.00;54.70;;;;;;5031664;28;20450;-46
2022/04/29 01:53:20;;;;;;;9.13;8.93;;;22.00;54.80;;;;;;5031767;28;20449;-46
2022/04/29 01:55:47;;;;;;;10.17;9.87;;;22.00;54.80;;;;;;5033882;28;20500;-47
2022/04/29 01:58:15;;;;;;;8.87;8.67;;;22.00;54.70;;;;;;5053819;28;20444;-46
2022/04/29 02:00:42;;;;;;;8.80;8.60;;;22.00;54.70;;;;;;5055373;28;20466;-46
2022/04/29 02:03:09;;;;;;;10.00;9.70;;;21.90;54.70;;;;;;5055355;28;20490;-47
2022/04/29 02:05:36;;;;;;;9.47;9.20;;;21.90;54.70;;;;;;5039813;28;20471;-47
2022/04/29 02:08:02;;;;;;;9.70;9.40;;;21.90;54.70;;;;;;5035196;28;20449;-46
2022/04/29 02:10:29;;;;;;;9.67;9.40;;;21.90;54.70;;;;;;5035393;28;20453;-47
2022/04/29 02:12:56;;;;;;;9.60;9.30;;;21.90;54.80;;;;;;5035571;28;20519;-47
2022/04/29 02:15:24;;;;;;;9.50;9.20;;;21.80;54.80;;;;;;5047946;28;20567;-47
2022/04/29 02:17:51;;;;;;;9.97;9.47;;;21.90;54.90;;;;;;5054803;28;20946;-46
2022/04/29 02:20:18;;;;;;;9.43;9.13;;;21.90;54.90;;;;;;5055015;28;20826;-46
2022/04/29 02:22:45;;;;;;;9.70;9.40;;;21.80;54.90;;;;;;5054919;28;20448;-47
2022/04/29 02:25:12;;;;;;;9.50;9.20;;;21.80;54.80;;;;;;5043116;28;20975;-46
2022/04/29 02:27:39;;;;;;;10.17;9.87;;;21.80;54.80;;;;;;5034756;28;20457;-47
2022/04/29 02:30:07;;;;;;;9.80;9.50;;;21.80;55.40;;;;;;5035112;28;20453;-49
2022/04/29 02:32:35;;;;;;;10.47;10.07;;;21.80;54.80;;;;;;5034881;28;20468;-46
2022/04/29 02:35:02;;;;;;;10.00;9.67;;;21.80;54.80;;;;;;5044327;28;20849;-47
2022/04/29 02:37:29;;;;;;;10.13;9.83;;;21.80;54.80;;;;;;5054756;28;20953;-47
2022/04/29 02:39:56;;;;;;;10.20;9.90;;;21.80;54.90;;;;;;5054580;28;20452;-47
2022/04/29 02:42:22;;;;;;;10.33;10.03;;;21.80;55.30;;;;;;5052863;28;20443;-49
2022/04/29 02:44:49;;;;;;;10.67;10.27;;;21.70;54.70;;;;;;5034453;28;20807;-47
2022/04/29 02:47:16;;;;;;;11.00;10.60;;;21.70;54.80;;;;;;5034442;28;20942;-46
2022/04/29 02:49:47;;;;;;;10.90;10.50;;;21.70;54.80;;;;;;5034913;28;20445;-46
2022/04/29 02:52:14;;;;;;;10.00;9.70;;;21.60;54.80;;;;;;5034718;28;20448;-46
2022/04/29 02:54:41;;;;;;;10.83;10.33;;;21.60;54.80;;;;;;5014426;28;20478;-47
2022/04/29 02:57:09;;;;;;;10.77;10.40;;;21.70;54.90;;;;;;5014634;28;20458;-46
2022/04/29 02:59:35;;;;;;;10.20;9.90;;;21.60;54.90;;;;;;5014534;28;20454;-47
2022/04/29 03:02:03;;;;;;;10.30;10.00;;;21.60;54.90;;;;;;5014499;28;20454;-46
2022/04/29 03:04:30;;;;;;;10.83;10.53;;;21.60;54.90;;;;;;5051607;28;20449;-47
2022/04/29 03:06:58;;;;;;;10.60;10.30;;;21.60;54.90;;;;;;5053826;28;20558;-46
2022/04/29 03:09:25;;;;;;;11.20;10.80;;;21.60;54.90;;;;;;5053289;28;20472;-46
2022/04/29 03:11:52;;;;;;;10.40;10.20;;;21.60;54.90;;;;;;5054032;28;20876;-47
2022/04/29 03:14:18;;;;;;;10.20;9.90;;;21.60;55.00;;;;;;5037124;28;20450;-47
2022/04/29 03:16:45;;;;;;;10.87;10.57;;;21.50;55.00;;;;;;5033661;28;20854;-46
2022/04/29 03:19:12;;;;;;;10.27;9.77;;;21.50;55.00;;;;;;5034034;28;20445;-47
2022/04/29 03:21:39;;;;;;;10.40;10.10;;;21.50;55.00;;;;;;5034054;28;20449;-47
2022/04/29 03:24:08;;;;;;;10.50;10.20;;;21.50;55.00;;;;;;5048434;28;20444;-47
2022/04/29 03:26:35;;;;;;;10.33;10.03;;;21.50;55.10;;;;;;5053905;28;20459;-46
2022/04/29 03:29:02;;;;;;;11.30;11.00;;;21.50;55.10;;;;;;5053627;28;20448;-46
2022/04/29 03:31:29;;;;;;;11.13;10.83;;;21.50;55.10;;;;;;5053966;28;20440;-50
2022/04/29 03:33:56;;;;;;;10.47;10.17;;;21.50;55.20;;;;;;5049354;28;20451;-46
2022/04/29 03:36:22;;;;;;;10.53;10.23;;;21.50;55.20;;;;;;5053252;28;21023;-47
2022/04/29 03:38:49;;;;;;;11.77;11.17;;;21.60;55.20;;;;;;5053476;28;20444;-51
2022/04/29 03:41:17;;;;;;;10.43;10.13;;;21.60;55.10;;;;;;5053490;28;20930;-47
2022/04/29 03:43:44;;;;;;;10.47;10.13;;;21.70;55.00;;;;;;5042078;28;20452;-48
2022/04/29 03:46:11;;;;;;;10.77;10.47;;;21.70;54.90;;;;;;5033309;28;20878;-47
2022/04/29 03:51:22;;;;;;;9.93;9.67;;;21.80;54.80;;;;;;5038662;28;20530;-46
2022/04/29 03:53:49;;;;;;;10.47;10.17;;;21.80;54.70;;;;;;5053251;28;20451;-48
2022/04/29 03:56:19;;;;;;;9.93;9.63;;;21.80;54.60;;;;;;5053049;28;20697;-47
2022/04/29 03:58:45;;;;;;;10.67;10.37;;;21.90;54.70;;;;;;5053010;28;20535;-48
2022/04/29 04:01:13;;;;;;;10.67;10.27;;;21.80;54.70;;;;;;5049566;28;20441;-49
2022/04/29 04:03:40;;;;;;;10.40;10.00;;;21.80;54.80;;;;;;5033188;28;20445;-47
2022/04/29 04:08:51;;;;;;;10.00;9.70;;;21.80;55.10;;;;;;5033195;28;20784;-47
2022/04/29 04:11:19;;;;;;;10.40;10.10;;;21.80;55.20;;;;;;5050617;28;20459;-46
2022/04/29 04:13:46;;;;;;;10.30;9.90;;;21.80;55.20;;;;;;5052868;28;20453;-47
2022/04/29 04:16:13;;;;;;;10.83;10.50;;;21.80;55.20;;;;;;5052734;28;20850;-47
2022/04/29 04:18:40;;;;;;;10.90;10.60;;;21.80;55.20;;;;;;5052516;28;20445;-47
2022/04/29 04:21:07;;;;;;;10.80;10.40;;;21.80;55.20;;;;;;5035324;28;20446;-47
2022/04/29 04:23:33;;;;;;;10.43;10.03;;;21.80;55.30;;;;;;5033084;28;20448;-47
2022/04/29 04:26:00;;;;;;;11.37;11.00;;;21.80;55.20;;;;;;5032657;28;20827;-47
2022/04/29 04:28:28;;;;;;;11.13;10.83;;;21.80;55.30;;;;;;5032334;28;20445;-47
2022/04/29 04:30:55;;;;;;;12.30;11.80;;;21.80;55.20;;;;;;5046641;28;20456;-47
2022/04/29 04:33:22;;;;;;;11.50;11.10;;;21.80;55.20;;;;;;5052713;28;20444;-47
2022/04/29 04:35:49;;;;;;;10.10;9.80;;;21.80;55.40;;;;;;5037677;28;20871;-47
2022/04/29 04:38:15;;;;;;;12.63;12.23;;;21.80;55.40;;;;;;5032475;28;20449;-47
2022/04/29 04:40:43;;;;;;;11.13;10.83;;;21.80;55.40;;;;;;5044374;28;20445;-46
2022/04/29 04:43:10;;;;;;;14.50;13.63;;;21.80;55.50;;;;;;5052345;28;20448;-47
2022/04/29 04:45:38;;;;;;;15.80;14.90;;;21.70;54.50;;;;;;5052035;28;21085;-46
2022/04/29 04:48:06;;;;;;;15.33;14.53;;;21.10;53.40;;;;;;5051956;28;20448;-46
2022/04/29 04:50:33;;;;;;;17.03;16.03;;;20.70;54.40;;;;;;5041340;28;20484;-46
2022/04/29 04:52:59;;;;;;;15.80;15.00;;;20.50;54.80;;;;;;5032302;28;20804;-46
2022/04/29 04:55:26;;;;;;;16.67;15.80;;;20.40;55.20;;;;;;5032085;28;20492;-46
2022/04/29 04:57:53;;;;;;;15.03;14.23;;;20.30;55.60;;;;;;5034302;28;20594;-46
2022/04/29 05:00:20;;;;;;;14.10;13.13;;;20.20;55.80;;;;;;5051992;28;20440;-46
2022/04/29 05:02:48;;;;;;;14.97;13.97;;;20.20;56.00;;;;;;5051869;28;20812;-47
2022/04/29 05:05:15;;;;;;;16.00;15.20;;;20.10;56.00;;;;;;5051815;28;20880;-46
2022/04/29 05:07:42;;;;;;;15.83;14.90;;;19.90;56.00;;;;;;5050809;28;20440;-47
2022/04/29 05:10:10;;;;;;;15.13;14.33;;;19.90;56.40;;;;;;5031939;28;20445;-46
2022/04/29 05:12:44;;;;;;;15.60;14.80;;;19.80;56.20;;;;;;5032117;28;20450;-46
2022/04/29 05:15:12;;;;;;;15.33;14.23;;;19.70;56.30;;;;;;5031582;28;20472;-49
2022/04/29 05:17:39;;;;;;;14.80;14.10;;;19.60;56.70;;;;;;5031641;28;20449;-51
2022/04/29 05:20:10;;;;;;;15.30;14.20;;;19.70;57.70;;;;;;5031639;28;21087;-56
2022/04/29 05:22:37;;;;;;;14.90;14.10;;;19.70;57.50;;;;;;5032095;28;20543;-49
2022/04/29 05:25:04;;;;;;;13.73;13.03;;;19.60;57.30;;;;;;5031881;28;20465;-47
2022/04/29 05:27:31;;;;;;;14.37;13.37;;;19.60;57.60;;;;;;5034454;28;21016;-47
2022/04/29 05:29:58;;;;;;;17.63;16.70;;;19.60;57.60;;;;;;5036978;28;20445;-47
2022/04/29 05:32:25;;;;;;;15.50;14.60;;;19.60;57.20;;;;;;5031433;28;20445;-47
2022/04/29 05:34:52;;;;;;;17.47;16.17;;;19.60;57.60;;;;;;5031589;28;20452;-47
2022/04/29 05:37:21;;;;;;;16.10;15.10;;;19.70;57.40;;;;;;5031363;28;20484;-47
2022/04/29 05:42:32;;;;;;;14.43;13.73;;;19.60;57.90;;;;;;5051490;28;20486;-48
2022/04/29 05:45:01;;;;;;;13.60;12.80;;;19.60;57.60;;;;;;5051203;28;20499;-49
2022/04/29 05:47:28;;;;;;;14.17;13.47;;;19.70;58.20;;;;;;5051105;28;20535;-49
2022/04/29 05:49:55;;;;;;;14.23;13.37;;;19.70;57.40;;;;;;5039012;28;20990;-48
2022/04/29 05:52:23;;;;;;;15.20;14.20;;;19.70;57.80;;;;;;5031398;28;20454;-50
2022/04/29 05:54:49;;;;;;;13.17;12.40;;;19.70;57.70;;;;;;5031458;28;20862;-48
2022/04/29 05:57:16;;;;;;;13.93;13.13;;;20.00;57.90;;;;;;5031408;28;20484;-49
2022/04/29 05:59:43;;;;;;;14.97;13.97;;;20.10;56.90;;;;;;5032710;28;20468;-53
2022/04/29 06:02:10;;;;;;;12.90;12.20;;;20.00;56.80;;;;;;5031527;28;20527;-49
2022/04/29 06:04:36;;;;;;;15.20;13.87;;;20.30;57.10;;;;;;5031575;28;20484;-51
2022/04/29 06:07:03;;;;;;;14.57;13.77;;;20.40;56.30;;;;;;5032272;28;20453;-53
2022/04/29 06:09:31;;;;;;;13.60;12.80;;;20.40;56.10;;;;;;5031507;28;20445;-49
2022/04/29 06:11:58;;;;;;;13.33;12.70;;;20.60;56.00;;;;;;5031295;28;20445;-50
2022/04/29 06:14:25;;;;;;;12.43;11.80;;;20.60;55.80;;;;;;5031292;28;20445;-51
2022/04/29 06:16:52;;;;;;;13.63;12.63;;;20.80;55.80;;;;;;5044698;28;20986;-49
2022/04/29 06:19:18;;;;;;;14.27;13.50;;;20.80;55.10;;;;;;5051252;28;20460;-48
2022/04/29 06:21:45;;;;;;;14.30;13.57;;;20.70;54.80;;;;;;5051006;28;20808;-50
2022/04/29 06:24:12;;;;;;;15.50;14.73;;;20.70;54.70;;;;;;5051033;28;20448;-49
2022/04/29 06:26:42;;;;;;;15.67;14.77;;;20.60;54.60;;;;;;5038919;28;20472;-49
2022/04/29 06:29:11;;;;;;;14.63;13.93;;;20.50;54.80;;;;;;5031367;28;20441;-49
2022/04/29 06:31:50;;;;;;;13.60;12.90;;;20.50;55.10;;;;;;5030943;28;20449;-50
2022/04/29 06:34:18;;;;;;;14.63;13.73;;;20.60;55.10;;;;;;5031302;28;20445;-49
2022/04/29 06:36:45;;;;;;;13.20;12.67;;;20.50;54.80;;;;;;5034706;28;20495;-49
2022/04/29 06:39:12;;;;;;;13.23;12.43;;;20.70;55.50;;;;;;5046888;28;20450;-49
2022/04/29 06:41:42;;;;;;;14.70;13.80;;;20.80;55.00;;;;;;5050986;28;20543;-50
2022/04/29 06:44:09;;;;;;;16.30;15.20;;;20.70;54.50;;;;;;5051643;28;20809;-50
2022/04/29 06:46:36;;;;;;;15.17;14.47;;;20.50;54.30;;;;;;5043421;28;21010;-51
2022/04/29 06:49:03;;;;;;;14.03;13.23;;;20.50;54.80;;;;;;5034432;28;20449;-49
2022/04/29 06:51:30;;;;;;;13.90;13.20;;;20.50;54.70;;;;;;5034665;28;20449;-61
2022/04/29 06:53:57;;;;;;;14.23;13.57;;;20.50;55.00;;;;;;5034629;28;20475;-50
2022/04/29 06:56:23;;;;;;;12.07;11.43;;;20.80;55.50;;;;;;5035233;28;20488;-49
2022/04/29 06:58:52;;;;;;;13.27;12.57;;;20.70;55.00;;;;;;5038787;28;20444;-51
2022/04/29 07:01:19;;;;;;;15.00;14.33;;;20.70;54.40;;;;;;5054339;28;20498;-49
2022/04/29 07:03:46;;;;;;;15.73;14.83;;;20.60;54.50;;;;;;5054069;28;20440;-46
2022/04/29 07:06:13;;;;;;;15.90;15.00;;;20.50;55.00;;;;;;5052383;28;20472;-55
2022/04/29 07:08:40;;;;;;;15.40;14.70;;;20.60;55.10;;;;;;5042294;28;20507;-50
2022/04/29 07:11:07;;;;;;;14.10;13.23;;;20.50;54.90;;;;;;5034062;28;20449;-48
2022/04/29 07:13:33;;;;;;;15.10;14.30;;;20.60;55.20;;;;;;5034243;28;20814;-48
2022/04/29 07:16:01;;;;;;;16.77;15.80;;;20.60;55.00;;;;;;5038403;28;20480;-48
2022/04/29 07:18:28;;;;;;;13.80;13.20;;;20.60;55.10;;;;;;5053674;28;20455;-47
2022/04/29 07:20:55;;;;;;;13.90;13.20;;;20.60;55.60;;;;;;5054242;28;20440;-49
2022/04/29 07:23:22;;;;;;;15.73;15.03;;;20.60;55.40;;;;;;5053798;28;20445;-50
2022/04/29 07:25:50;;;;;;;17.97;16.97;;;20.70;55.20;;;;;;5053755;28;20469;-46
2022/04/29 07:28:17;;;;;;;17.17;16.37;;;20.60;55.10;;;;;;5051786;28;20445;-47
2022/04/29 07:30:43;;;;;;;16.20;15.23;;;20.50;55.10;;;;;;5053902;28;20455;-48
2022/04/29 07:33:12;;;;;;;17.20;16.07;;;20.60;55.80;;;;;;5053680;28;20441;-48
2022/04/29 07:43:51;;;;;;;14.30;13.43;;;20.60;55.10;;;;;;5053830;28;20478;-52
2022/04/29 07:46:19;;;;;;;15.57;14.57;;;20.70;55.40;;;;;;5053280;28;20805;-57
2022/04/29 07:48:48;;;;;;;16.10;15.20;;;20.70;55.00;;;;;;5053209;28;20481;-56
2022/04/29 07:51:14;;;;;;;15.07;14.37;;;20.60;54.80;;;;;;5039973;28;20449;-55
2022/04/29 07:53:41;;;;;;;15.27;14.57;;;20.40;54.70;;;;;;5033486;28;20452;-53
2022/04/29 07:56:08;;;;;;;13.90;13.10;;;20.30;54.90;;;;;;5033066;28;20829;-58
2022/04/29 07:58:35;;;;;;;14.43;13.73;;;20.50;55.30;;;;;;5033067;28;20453;-56
2022/04/29 08:01:04;;;;;;;16.27;15.47;;;20.50;54.40;;;;;;5033185;28;20453;-52
2022/04/29 08:03:31;;;;;;;15.03;14.10;;;20.60;54.60;;;;;;5048873;28;20456;-52
2022/04/29 08:05:59;;;;;;;17.37;16.20;;;20.50;53.90;;;;;;5052887;28;20973;-52
2022/04/29 08:08:26;;;;;;;16.67;15.77;;;20.40;53.90;;;;;;5052680;28;20509;-56
2022/04/29 08:10:53;;;;;;;11.57;11.17;;;20.30;54.40;;;;;;5052784;28;20471;-53
2022/04/29 08:13:20;;;;;;;13.30;12.70;;;20.60;56.30;;;;;;5052830;28;20444;-53
2022/04/29 08:15:49;;;;;;;12.63;12.03;;;20.80;56.90;;;;;;5035576;28;20465;-56
2022/04/29 08:18:16;;;;;;;12.93;12.33;;;20.90;56.50;;;;;;5032757;28;20491;-52
2022/04/29 08:20:44;;;;;;;14.27;13.63;;;21.00;56.60;;;;;;5033021;28;20451;-52
2022/04/29 08:23:12;;;;;;;16.47;15.43;;;21.10;55.70;;;;;;5036748;28;20449;-56
2022/04/29 08:25:39;;;;;;;15.90;15.00;;;21.00;54.50;;;;;;5045792;28;20465;-53
2022/04/29 08:28:06;;;;;;;16.30;15.30;;;20.90;53.40;;;;;;5052305;28;20448;-53
2022/04/29 08:30:33;;;;;;;14.73;13.90;;;20.90;54.60;;;;;;5052394;28;20472;-59
2022/04/29 08:33:00;;;;;;;14.30;13.60;;;20.90;54.50;;;;;;5044977;28;20461;-53
2022/04/29 08:35:28;;;;;;;15.17;14.13;;;20.90;54.30;;;;;;5032412;28;20469;-53
2022/04/29 08:37:56;;;;;;;15.00;14.30;;;20.90;53.50;;;;;;5032545;28;21033;-52
2022/04/29 08:40:27;;;;;;;13.20;12.50;;;21.00;54.10;;;;;;5032506;28;20962;-53
2022/04/29 08:42:56;;;;;;;13.53;12.93;;;21.10;54.30;;;;;;5032496;28;20445;-52
2022/04/29 08:45:23;;;;;;;16.30;15.40;;;21.10;54.10;;;;;;5044662;28;20500;-56
2022/04/29 08:47:50;;;;;;;17.83;16.83;;;21.10;53.00;;;;;;5051918;28;20452;-54
2022/04/29 08:50:18;;;;;;;14.83;14.00;;;21.00;51.60;;;;;;5052355;28;20444;-64
2022/04/29 08:52:46;;;;;;;15.00;14.00;;;20.90;52.00;;;;;;5052209;28;20452;-54
2022/04/29 09:00:44;;;;;;;14.83;14.03;;;21.00;51.60;;;;;;5032319;28;20564;-50
2022/04/29 09:03:15;;;;;;;14.17;12.93;;;21.10;51.80;;;;;;5032021;28;20446;-50
2022/04/29 09:05:42;;;;;;;15.37;14.37;;;21.30;51.90;;;;;;5032085;28;20983;-50
2022/04/29 09:08:12;;;;;;;15.67;14.53;;;21.30;51.10;;;;;;5037351;28;20448;-50
2022/04/29 09:10:49;;;;;;;14.77;13.70;;;21.40;50.60;;;;;;5051837;28;20450;-48
2022/04/29 09:13:18;;;;;;;14.07;13.47;;;21.40;50.40;;;;;;5051907;28;20444;-49
2022/04/29 09:15:49;;;;;;;16.17;15.27;;;21.30;49.90;;;;;;5051805;28;20818;-47
2022/04/29 09:18:33;;;;;;;14.53;13.40;;;21.20;49.30;;;;;;5051534;28;20484;-61
2022/04/29 09:21:01;;;;;;;13.70;13.00;;;21.30;49.90;;;;;;5036228;28;20477;-58
2022/04/29 09:23:29;;;;;;;14.57;13.63;;;21.40;50.20;;;;;;5031700;28;20487;-50
2022/04/29 09:25:57;;;;;;;14.80;14.00;;;21.40;50.20;;;;;;5031861;28;20472;-48
2022/04/29 09:28:26;;;;;;;15.10;13.83;;;21.50;50.00;;;;;;5035394;28;20450;-47
2022/04/29 09:30:56;;;;;;;15.00;14.20;;;21.50;49.70;;;;;;5031710;28;20452;-49
2022/04/29 09:33:24;;;;;;;15.20;14.30;;;21.50;49.40;;;;;;5031797;28;21002;-48
2022/04/29 09:35:52;;;;;;;15.20;14.40;;;21.50;49.40;;;;;;5031886;28;20465;-53
2022/04/29 09:41:04;;;;;;;16.00;14.90;;;21.50;49.20;;;;;;5051554;28;21040;-51
2022/04/29 09:43:33;;;;;;;14.97;14.07;;;21.50;48.90;;;;;;5040659;28;20456;-51
2022/04/29 09:46:11;;;;;;;15.90;14.80;;;21.50;48.80;;;;;;5031344;28;20488;-46
2022/04/29 09:48:52;;;;;;;16.13;15.10;;;21.40;48.50;;;;;;5031264;28;21045;-53
2022/04/29 09:51:39;;;;;;;15.97;15.17;;;21.30;49.30;;;;;;5045303;28;20440;-53
2022/04/29 09:54:10;;;;;;;15.63;14.37;;;21.20;48.80;;;;;;5051346;28;20448;-53
2022/04/29 09:56:37;;;;;;;14.43;13.73;;;21.20;49.30;;;;;;5050959;28;20464;-57
2022/04/29 09:59:08;;;;;;;15.73;14.60;;;21.30;49.20;;;;;;5051264;28;20444;-54
2022/04/29 10:01:35;;;;;;;15.97;15.07;;;21.30;49.00;;;;;;5051259;28;20467;-52
2022/04/29 10:04:02;;;;;;;16.60;15.63;;;21.20;48.60;;;;;;5034066;28;20453;-52
2022/04/29 10:06:30;;;;;;;17.97;16.60;;;21.20;48.50;;;;;;5031170;28;20472;-51
2022/04/29 10:08:59;;;;;;;17.87;16.77;;;21.10;48.80;;;;;;5031376;28;20773;-50
2022/04/29 10:11:27;;;;;;;15.90;14.83;;;21.00;48.80;;;;;;5031320;28;20444;-56
2022/04/29 10:13:56;;;;;;;15.63;14.53;;;20.90;48.80;;;;;;5031463;28;20452;-54
2022/04/29 10:16:27;;;;;;;16.10;15.13;;;21.00;49.00;;;;;;5049811;28;20468;-59
2022/04/29 10:21:47;;;;;;;16.40;15.10;;;21.10;48.90;;;;;;5055365;28;20470;-57
2022/04/29 10:24:14;;;;;;;14.30;13.40;;;21.10;49.00;;;;;;5039809;28;20951;-57
2022/04/29 10:26:41;;;;;;;15.10;14.20;;;21.10;48.90;;;;;;5034998;28;20467;-54
2022/04/29 10:29:09;;;;;;;14.73;14.03;;;21.10;49.00;;;;;;5034842;28;20471;-50
2022/04/29 10:31:37;;;;;;;15.73;14.63;;;21.20;49.10;;;;;;5041076;28;20450;-55
2022/04/29 10:34:28;;;;;;;14.90;14.00;;;21.10;49.10;;;;;;5054888;28;20455;-47
2022/04/29 10:36:55;;;;;;;16.30;15.13;;;21.10;49.20;;;;;;5054492;28;20488;-49
2022/04/29 10:39:22;;;;;;;16.50;15.30;;;21.00;49.00;;;;;;5054731;28;20501;-62
2022/04/29 10:42:00;;;;;;;16.37;15.37;;;21.00;49.50;;;;;;5046143;28;20456;-47
2022/04/29 10:44:27;;;;;;;15.27;14.37;;;21.00;49.40;;;;;;5034630;28;20953;-51
2022/04/29 10:46:55;;;;;;;17.00;15.97;;;21.00;49.50;;;;;;5034498;28;20472;-59
2022/04/29 10:49:27;;;;;;;16.00;15.10;;;21.00;52.00;;;;;;5034904;28;20448;-47
2022/04/29 10:51:55;;;;;;;16.27;15.33;;;20.90;52.30;;;;;;5035427;28;20449;-48
2022/04/29 10:54:45;;;;;;;14.53;13.73;;;21.00;52.30;;;;;;5039994;28;20445;-56
2022/04/29 10:57:14;;;;;;;15.43;14.60;;;21.00;52.30;;;;;;5054093;28;20538;-60
2022/04/29 10:59:52;;;;;;;16.40;15.47;;;21.10;52.60;;;;;;5054723;28;20506;-47
2022/04/29 11:02:30;;;;;;;16.40;15.60;;;21.10;53.00;;;;;;5054573;28;20448;-53
2022/04/29 11:04:59;;;;;;;16.00;15.10;;;21.20;52.40;;;;;;5053939;28;20953;-62
2022/04/29 11:07:43;;;;;;;15.43;14.50;;;21.30;52.00;;;;;;5052405;28;20922;-60
2022/04/29 11:10:15;;;;;;;16.40;15.40;;;21.30;52.10;;;;;;5054048;28;20928;-61
2022/04/29 11:12:54;;;;;;;14.20;13.50;;;21.40;51.40;;;;;;5054049;28;20475;-52
2022/04/29 11:15:23;;;;;;;17.73;16.43;;;21.40;51.10;;;;;;5054118;28;20471;-61
2022/04/29 11:17:51;;;;;;;15.93;15.13;;;21.50;50.70;;;;;;5048267;28;20834;-53
2022/04/29 11:20:20;;;;;;;16.87;15.77;;;21.50;50.50;;;;;;5043235;28;20449;-51
2022/04/29 11:25:50;;;;;;;14.73;13.80;;;21.60;50.40;;;;;;5054139;28;20444;-46
2022/04/29 11:28:17;;;;;;;14.80;13.73;;;21.60;50.10;;;;;;5053824;28;20456;-50
2022/04/29 11:30:44;;;;;;;13.40;12.80;;;21.70;50.20;;;;;;5040391;28;20449;-60
2022/04/29 11:33:12;;;;;;;12.73;12.23;;;21.80;50.60;;;;;;5034283;28;20449;-63
2022/04/29 11:35:39;;;;;;;15.40;14.80;;;21.90;50.80;;;;;;5033912;28;20473;-57
2022/04/29 11:38:08;;;;;;;13.63;12.93;;;21.90;50.80;;;;;;5038123;28;20506;-55
2022/04/29 11:40:38;;;;;;;13.90;13.20;;;21.90;50.90;;;;;;5053791;28;20436;-56
2022/04/29 11:43:08;;;;;;;13.10;12.60;;;22.00;51.00;;;;;;5053809;28;20448;-52
2022/04/29 11:45:36;;;;;;;13.13;12.60;;;22.00;51.50;;;;;;5053589;28;20476;-53
2022/04/29 11:48:04;;;;;;;12.90;12.30;;;22.00;51.00;;;;;;5051867;28;20442;-50
2022/04/29 11:50:33;;;;;;;13.50;12.80;;;22.00;51.00;;;;;;5036958;28;20449;-62
2022/04/29 11:53:07;;;;;;;12.30;11.60;;;22.10;50.60;;;;;;5034613;28;20450;-49
2022/04/29 11:55:34;;;;;;;13.20;12.70;;;22.10;50.60;;;;;;5034423;28;20468;-49
2022/04/29 11:58:01;;;;;;;12.93;12.40;;;22.20;50.90;;;;;;5033409;28;20481;-48
2022/04/29 12:00:30;;;;;;;12.77;12.30;;;22.20;51.00;;;;;;5034523;28;20441;-56
2022/04/29 12:02:58;;;;;;;12.07;11.60;;;22.20;51.10;;;;;;5033522;28;20445;-49
2022/04/29 12:05:26;;;;;;;11.63;11.20;;;22.20;51.10;;;;;;5033461;28;20470;-48
2022/04/29 12:07:55;;;;;;;12.80;12.20;;;22.20;50.70;;;;;;5033059;28;20448;-47
2022/04/29 12:10:23;;;;;;;14.87;14.27;;;22.10;50.40;;;;;;5036867;28;20938;-50
2022/04/29 12:12:54;;;;;;;13.00;12.50;;;22.10;50.10;;;;;;5052957;28;20814;-48
2022/04/29 12:15:25;;;;;;;13.30;12.70;;;22.10;49.90;;;;;;5053007;28;20825;-48
2022/04/29 12:17:56;;;;;;;12.60;12.10;;;22.10;50.10;;;;;;5052441;28;20484;-48
2022/04/29 12:20:23;;;;;;;12.93;12.30;;;22.10;50.30;;;;;;5052871;28;20459;-48
2022/04/29 12:22:52;;;;;;;13.53;12.93;;;22.10;50.10;;;;;;5043319;28;20452;-48
2022/04/29 12:25:25;;;;;;;13.10;12.50;;;22.10;50.10;;;;;;5033197;28;20473;-48
2022/04/29 12:28:10;;;;;;;13.20;12.50;;;22.00;49.50;;;;;;5032694;28;20438;-48
2022/04/29 12:36:08;;;;;;;12.17;11.67;;;22.10;50.70;;;;;;5052950;28;20447;-49
2022/04/29 12:38:36;;;;;;;13.33;12.17;;;22.10;51.80;;;;;;5050988;28;20576;-47
2022/04/29 12:41:23;;;;;;;12.07;11.43;;;22.10;51.80;;;;;;5052667;28;20459;-50
2022/04/29 12:43:50;;;;;;;11.57;11.13;;;22.10;51.70;;;;;;5052937;28;20448;-50
2022/04/29 12:46:18;;;;;;;11.90;11.50;;;22.00;51.20;;;;;;5053311;28;21017;-47
2022/04/29 12:48:50;;;;;;;12.43;11.93;;;22.00;51.20;;;;;;5037996;28;20445;-48
2022/04/29 12:51:24;;;;;;;12.10;11.60;;;22.00;51.30;;;;;;5032463;28;20803;-49
2022/04/29 12:53:51;;;;;;;12.10;11.70;;;22.00;51.40;;;;;;5032543;28;20503;-50
2022/04/29 12:56:28;;;;;;;11.50;11.10;;;22.00;51.30;;;;;;5032294;28;20469;-50
2022/04/29 12:58:56;;;;;;;12.70;12.20;;;22.00;51.30;;;;;;5033097;28;20477;-49
2022/04/29 13:01:22;;;;;;;11.90;11.30;;;21.90;51.00;;;;;;5032411;28;20445;-49
2022/04/29 13:03:51;;;;;;;12.83;12.23;;;21.90;51.00;;;;;;5032342;28;20524;-47
2022/04/29 13:06:20;;;;;;;12.50;11.90;;;21.90;51.30;;;;;;5032046;28;20465;-49
2022/04/29 13:08:56;;;;;;;11.57;11.17;;;21.90;51.20;;;;;;5043328;28;20459;-48
2022/04/29 13:11:25;;;;;;;11.80;11.20;;;21.90;51.60;;;;;;5052184;28;20809;-47
2022/04/29 13:13:54;;;;;;;12.57;12.07;;;21.80;51.20;;;;;;5051984;28;20444;-48